Time;durP1;ratioP1;P1;durP2;ratioP2;P2;SDS_P1;SDS_P2;PMS_P1;PMS_P2;Temp;Humidity;BMP_temperature;BMP_pressure;BME280_temperature;BME280_humidity;BME280_pressure;Samples;Min_cycle;Max_cycle;Signal;HPM_P1;HPM_P2
2022/05/28 00:01:55;;;;;;;5.68;1.70;;;;;;;14.59;56.67;100377.38;5076203;28;20493;-90
2022/05/28 00:04:20;;;;;;;5.80;1.83;;;;;;;14.82;57.28;100375.09;5077528;28;20021;-90
2022/05/28 00:07:00;;;;;;;5.35;1.80;;;;;;;14.85;57.08;100373.94;5076340;28;20035;-90
2022/05/28 00:09:28;;;;;;;5.50;1.75;;;;;;;14.91;56.65;100365.22;5057065;28;20029;-91
2022/05/28 00:11:53;;;;;;;3.77;1.40;;;;;;;14.89;56.34;100368.06;5044847;28;20024;-95
2022/05/28 00:14:25;;;;;;;6.35;1.73;;;;;;;14.89;56.84;100361.84;5064710;28;20008;-91
2022/05/28 00:17:33;;;;;;;5.43;1.63;;;;;;;14.93;55.90;100360.53;5094485;23;20047;-91
2022/05/28 00:19:59;;;;;;;6.80;1.70;;;;;;;14.84;56.44;100364.16;5079995;28;20040;-92
2022/05/28 00:22:24;;;;;;;5.55;1.77;;;;;;;14.86;56.13;100359.47;5080192;28;20020;-95
2022/05/28 00:25:13;;;;;;;7.68;1.65;;;;;;;14.84;56.54;100364.16;5063249;28;20039;-92
2022/05/28 00:27:39;;;;;;;4.53;1.60;;;;;;;14.78;56.06;100362.94;5095726;28;20089;-89
2022/05/28 00:30:06;;;;;;;6.28;1.88;;;;;;;14.77;56.78;100367.47;5078501;28;20005;-93
2022/05/28 00:32:57;;;;;;;5.45;1.83;;;;;;;14.71;56.66;100359.16;5039774;23;20046;-95
2022/05/28 00:35:22;;;;;;;5.75;1.60;;;;;;;14.75;56.44;100355.16;5021584;28;20053;-91
2022/05/28 00:37:49;;;;;;;6.97;1.70;;;;;;;14.76;56.33;100355.00;5059235;23;20045;-94
2022/05/28 00:40:21;;;;;;;5.47;1.55;;;;;;;14.77;56.35;100355.84;5080499;23;20018;-94
2022/05/28 00:42:47;;;;;;;5.38;1.52;;;;;;;14.75;56.22;100357.84;5061243;28;20048;-96
2022/05/28 00:45:18;;;;;;;4.15;1.70;;;;;;;14.82;56.11;100360.78;5044954;28;20055;-95
2022/05/28 00:48:09;;;;;;;5.85;1.70;;;;;;;14.74;56.40;100365.09;5044681;28;20013;-92
2022/05/28 00:50:39;;;;;;;6.45;1.63;;;;;;;14.66;56.45;100365.03;5077665;28;20025;-95
2022/05/28 00:53:16;;;;;;;6.63;1.70;;;;;;;14.63;56.56;100359.91;5136149;23;20029;-95
2022/05/28 00:55:42;;;;;;;5.40;1.60;;;;;;;14.70;56.74;100362.88;5077808;28;20025;-95
2022/05/28 00:58:10;;;;;;;3.17;1.33;;;;;;;14.63;56.67;100357.22;5043943;28;20047;-94
2022/05/28 01:17:41;;;;;;;5.63;1.75;;;;;;;14.57;57.37;100339.00;5077719;28;20044;-95
2022/05/28 01:20:12;;;;;;;5.68;1.80;;;;;;;14.68;57.03;100340.63;5067115;22;20041;-91
2022/05/28 01:22:51;;;;;;;7.10;1.80;;;;;;;14.67;57.11;100339.78;5074886;28;20068;-96
2022/05/28 01:25:54;;;;;;;5.97;1.80;;;;;;;14.72;56.20;100333.94;5089587;23;20067;-96
2022/05/28 01:28:23;;;;;;;4.63;1.90;;;;;;;14.78;56.32;100334.16;5059547;28;20020;-94
2022/05/28 01:30:52;;;;;;;4.05;1.45;;;;;;;14.75;56.27;100336.31;5043496;28;20044;-93
2022/05/28 01:33:27;;;;;;;;;;;;;;;14.74;56.37;100324.69;5059891;28;20025;-94
2022/05/28 01:35:59;;;;;;;5.95;1.65;;;;;;;14.70;56.04;100326.03;5085328;28;19924;-94
2022/05/28 01:38:27;;;;;;;5.72;1.73;;;;;;;14.69;56.55;100323.47;5038342;28;20032;-94
2022/05/28 01:40:52;;;;;;;6.03;1.88;;;;;;;14.74;56.67;100327.41;5021972;28;20026;-89
2022/05/28 01:46:56;;;;;;;5.30;1.70;;;;;;;14.78;56.58;100311.78;5055083;28;20032;-91
2022/05/28 01:49:25;;;;;;;5.13;1.58;;;;;;;14.85;56.78;100315.53;5022845;28;20021;-94
2022/05/28 01:51:54;;;;;;;6.53;1.92;;;;;;;14.89;56.53;100316.91;5022139;28;20101;-94
2022/05/28 01:54:24;;;;;;;6.28;2.00;;;;;;;14.92;56.06;100318.44;5034682;28;20026;-95
2022/05/28 01:56:55;;;;;;;5.65;1.73;;;;;;;14.97;57.11;100316.97;5016444;28;20036;-93
2022/05/28 01:59:26;;;;;;;6.07;1.95;;;;;;;15.07;56.42;100316.84;5016860;28;20455;-96
2022/05/28 02:01:52;;;;;;;8.32;2.00;;;;;;;15.14;57.00;100309.88;5010851;28;20451;-93
2022/05/28 02:04:17;;;;;;;4.68;1.70;;;;;;;15.08;56.94;100310.47;5012165;28;20068;-96
2022/05/28 02:06:43;;;;;;;8.07;2.05;;;;;;;15.15;57.11;100305.31;5010529;28;20029;-95
2022/05/28 02:09:14;;;;;;;5.70;1.83;;;;;;;15.05;56.71;100300.84;5011212;28;20026;-94
2022/05/28 02:11:48;;;;;;;7.38;2.00;;;;;;;15.01;57.08;100304.03;5012757;28;20033;-94
2022/05/28 02:14:21;;;;;;;9.02;2.20;;;;;;;14.98;56.96;100299.81;5026822;28;20030;-94
2022/05/28 02:16:59;;;;;;;6.20;1.92;;;;;;;15.00;57.41;100305.88;5008864;28;20033;-91
2022/05/28 02:19:34;;;;;;;5.65;1.92;;;;;;;14.94;57.53;100295.72;5024888;28;20360;-95
2022/05/28 02:22:06;;;;;;;5.63;1.90;;;;;;;14.99;57.30;100293.41;5008431;28;20025;-92
2022/05/28 02:24:37;;;;;;;5.43;1.73;;;;;;;14.96;57.29;100292.88;5009203;28;20403;-96
2022/05/28 02:27:06;;;;;;;5.55;1.73;;;;;;;14.92;57.03;100295.03;5010305;28;20128;-94
2022/05/28 02:29:31;;;;;;;;;;;;;;;14.96;56.90;100296.41;5010600;28;20021;-93
2022/05/28 02:31:57;;;;;;;;;;;;;;;14.99;56.62;100295.25;5009094;28;19913;-93
2022/05/28 02:34:22;;;;;;;;;;;;;;;14.96;57.11;100295.56;5011104;28;20000;-95
2022/05/28 02:36:47;;;;;;;;;;;;;;;15.04;56.95;100295.63;5010577;28;19917;-91
2022/05/28 02:39:12;;;;;;;;;;;;;;;15.05;57.34;100292.78;5012186;28;19917;-94
2022/05/28 02:41:38;;;;;;;;;;;;;;;15.08;56.66;100291.59;5012061;28;19920;-96
2022/05/28 02:44:03;;;;;;;;;;;;;;;15.08;57.12;100291.59;5012041;28;19916;-94
2022/05/28 02:46:28;;;;;;;;;;;;;;;15.03;57.48;100288.56;5014094;28;19913;-93
2022/05/28 02:48:53;;;;;;;;;;;;;;;15.04;56.57;100287.53;5008849;28;20347;-94
2022/05/28 02:51:20;;;;;;;;;;;;;;;15.10;57.57;100293.13;5025189;28;20258;-94
2022/05/28 02:53:46;;;;;;;;;;;;;;;14.99;56.75;100288.03;5006955;28;19920;-94
2022/05/28 02:56:11;;;;;;;;;;;;;;;15.03;57.25;100292.09;5006105;28;20349;-94
2022/05/28 02:58:37;;;;;;;;;;;;;;;14.99;57.69;100282.63;5006783;28;19919;-96
2022/05/28 03:01:03;;;;;;;;;;;;;;;15.02;56.80;100289.56;5007341;28;19936;-95
2022/05/28 03:03:29;;;;;;;;;;;;;;;15.04;57.26;100285.69;5007611;28;20267;-95
2022/05/28 03:05:55;;;;;;;;;;;;;;;15.06;57.14;100291.78;5004927;28;19913;-95
2022/05/28 03:08:20;;;;;;;;;;;;;;;15.02;57.30;100287.72;5005461;28;19913;-96
2022/05/28 03:10:45;;;;;;;;;;;;;;;15.05;56.66;100282.00;5005348;28;20004;-96
2022/05/28 03:13:11;;;;;;;;;;;;;;;14.93;57.97;100279.72;5007970;28;19917;-96
2022/05/28 03:15:36;;;;;;;;;;;;;;;14.98;57.08;100283.63;5007586;28;19913;-96
2022/05/28 03:18:01;;;;;;;;;;;;;;;14.92;57.60;100294.19;5007669;28;19936;-94
2022/05/28 03:20:27;;;;;;;;;;;;;;;14.87;57.41;100286.59;5006856;28;19920;-96
2022/05/28 03:22:54;;;;;;;;;;;;;;;14.86;57.21;100287.59;5007357;28;19913;-96
2022/05/28 03:25:19;;;;;;;;;;;;;;;14.78;57.40;100287.53;5008736;28;19917;-96
2022/05/28 03:27:44;;;;;;;;;;;;;;;14.62;57.29;100290.94;5010307;28;19917;-96
2022/05/28 03:30:10;;;;;;;;;;;;;;;14.68;57.75;100294.88;5008465;28;19959;-95
2022/05/28 03:32:35;;;;;;;;;;;;;;;14.66;58.43;100295.03;5008322;28;19920;-96
2022/05/28 03:35:00;;;;;;;;;;;;;;;14.64;58.17;100297.00;5008992;28;19920;-94
2022/05/28 03:37:25;;;;;;;;;;;;;;;14.69;58.59;100293.88;5007421;28;19920;-96
2022/05/28 03:39:51;;;;;;;;;;;;;;;14.76;58.79;100292.25;5023599;28;20020;-95
2022/05/28 03:42:16;;;;;;;;;;;;;;;14.73;58.65;100287.16;5006842;28;19913;-95
2022/05/28 03:44:41;;;;;;;;;;;;;;;14.64;58.42;100288.94;5009056;28;19950;-96
2022/05/28 03:47:06;;;;;;;;;;;;;;;14.78;58.56;100296.47;5022808;28;19920;-96
2022/05/28 03:49:35;;;;;;;;;;;;;;;14.90;58.12;100290.81;5025086;28;19920;-96
2022/05/28 03:52:01;;;;;;;;;;;;;;;14.89;57.81;100291.81;5028026;28;19959;-95
2022/05/28 03:54:27;;;;;;;;;;;;;;;14.87;58.46;100288.44;5026169;28;19936;-96
2022/05/28 03:56:53;;;;;;;;;;;;;;;14.89;58.20;100289.97;5025585;28;19913;-95
2022/05/28 03:59:19;;;;;;;;;;;;;;;14.96;58.56;100290.19;5024533;28;19919;-95
2022/05/28 04:01:44;;;;;;;;;;;;;;;14.83;58.51;100301.38;5029163;28;19948;-94
2022/05/28 04:04:09;;;;;;;;;;;;;;;14.74;58.13;100296.94;5027673;28;20244;-95
2022/05/28 04:06:35;;;;;;;;;;;;;;;14.73;58.53;100296.09;5027873;28;20009;-96
2022/05/28 04:09:00;;;;;;;;;;;;;;;14.70;59.16;100300.94;5031444;28;19935;-94
2022/05/28 04:11:25;;;;;;;;;;;;;;;14.66;59.20;100305.78;5032531;28;19913;-96
2022/05/28 04:13:51;;;;;;;;;;;;;;;14.62;59.76;100296.31;5033478;28;19917;-94
2022/05/28 04:16:17;;;;;;;;;;;;;;;14.63;59.55;100303.38;5031480;28;20011;-96
2022/05/28 04:18:43;;;;;;;;;;;;;;;14.65;58.73;100305.91;5031974;28;20047;-96
2022/05/28 04:21:08;;;;;;;;;;;;;;;14.72;59.53;100301.63;5022722;28;19944;-95
2022/05/28 04:23:33;;;;;;;;;;;;;;;14.75;58.66;100309.41;5021380;28;19913;-94
2022/05/28 04:25:59;;;;;;;;;;;;;;;14.82;59.10;100305.06;5020361;28;19976;-93
2022/05/28 04:28:24;;;;;;;;;;;;;;;14.73;58.58;100304.16;5022303;28;20354;-94
2022/05/28 04:30:49;;;;;;;;;;;;;;;14.82;58.42;100307.78;5022015;28;19913;-95
2022/05/28 04:33:14;;;;;;;;;;;;;;;14.83;59.29;100303.22;5020362;28;19909;-94
2022/05/28 04:35:40;;;;;;;;;;;;;;;14.83;59.24;100305.91;5008991;28;19912;-95
2022/05/28 04:38:05;;;;;;;;;;;;;;;14.77;59.13;100310.94;5008719;28;19935;-96
2022/05/28 04:40:30;;;;;;;;;;;;;;;14.72;59.42;100307.03;5024424;28;19920;-94
2022/05/28 04:42:55;;;;;;;;;;;;;;;14.69;58.85;100312.72;5023865;28;19967;-93
2022/05/28 04:45:21;;;;;;;;;;;;;;;14.70;59.56;100315.25;5036156;28;19909;-94
2022/05/28 04:47:46;;;;;;;;;;;;;;;14.70;59.56;100314.41;5014799;28;19927;-94
2022/05/28 04:50:11;;;;;;;;;;;;;;;14.76;58.99;100311.09;5043757;28;19920;-95
2022/05/28 04:52:38;;;;;;;;;;;;;;;14.75;59.20;100310.25;5029071;28;19920;-93
2022/05/28 04:55:04;;;;;;;;;;;;;;;14.70;59.27;100312.56;5021499;28;19923;-92
2022/05/28 04:57:29;;;;;;;;;;;;;;;14.70;59.90;100312.56;5024021;28;20348;-91
2022/05/28 04:59:54;;;;;;;;;;;;;;;14.66;59.89;100313.00;5025241;28;19921;-91
2022/05/28 05:02:20;;;;;;;;;;;;;;;14.69;59.92;100310.03;5025482;28;20389;-94
2022/05/28 05:04:45;;;;;;;;;;;;;;;14.74;59.46;100307.72;5025692;28;19913;-93
2022/05/28 05:07:10;;;;;;;;;;;;;;;14.79;60.32;100310.78;5023155;28;19949;-93
2022/05/28 05:09:36;;;;;;;;;;;;;;;14.73;59.40;100304.16;5026438;28;19944;-90
2022/05/28 05:12:02;;;;;;;;;;;;;;;14.86;59.72;100297.53;5023750;28;19920;-94
2022/05/28 05:14:27;;;;;;;;;;;;;;;14.83;60.14;100303.22;5029722;28;19921;-95
2022/05/28 05:16:52;;;;;;;;;;;;;;;14.88;59.94;100296.38;5019749;28;19928;-91
2022/05/28 05:19:18;;;;;;;;;;;;;;;14.88;60.40;100306.28;5019991;28;19913;-94
2022/05/28 05:21:43;;;;;;;;;;;;;;;14.82;60.67;100309.63;5021983;28;19928;-93
2022/05/28 05:24:09;;;;;;;;;;;;;;;14.80;59.83;100307.06;5029114;28;19988;-92
2022/05/28 05:26:34;;;;;;;;;;;;;;;14.74;60.67;100308.56;5043774;28;19924;-93
2022/05/28 05:28:59;;;;;;;;;;;;;;;14.78;60.45;100317.16;5033648;28;19918;-92
2022/05/28 05:31:24;;;;;;;;;;;;;;;14.76;61.11;100316.47;5008914;28;19917;-93
2022/05/28 05:33:50;;;;;;;;;;;;;;;14.83;61.46;100316.69;5032593;28;19920;-90
2022/05/28 05:36:15;;;;;;;;;;;;;;;14.91;61.23;100317.59;5022544;28;19960;-96
2022/05/28 05:38:40;;;;;;;;;;;;;;;14.96;61.06;100317.13;5024260;28;19921;-91
2022/05/28 05:41:05;;;;;;;;;;;;;;;14.96;60.98;100317.13;5018173;28;19913;-96
2022/05/28 05:43:31;;;;;;;;;;;;;;;14.92;61.45;100313.06;5017086;28;19924;-93
2022/05/28 05:45:58;;;;;;;;;;;;;;;14.74;61.87;100321.16;5033381;28;19967;-94
2022/05/28 05:48:23;;;;;;;;;;;;;;;14.75;61.41;100325.56;5035546;28;19913;-95
2022/05/28 05:50:49;;;;;;;;;;;;;;;14.60;61.86;100321.69;5038778;28;19913;-96
2022/05/28 05:53:14;;;;;;;;;;;;;;;14.56;62.58;100323.84;5037276;28;19913;-95
2022/05/28 05:55:40;;;;;;;;;;;;;;;14.49;63.47;100322.78;5042046;28;19913;-96
2022/05/28 05:58:05;;;;;;;;;;;;;;;14.52;63.79;100327.00;5032284;28;19913;-94
2022/05/28 06:00:31;;;;;;;;;;;;;;;14.26;63.97;100326.91;5053635;28;19913;-94
2022/05/28 06:02:56;;;;;;;;;;;;;;;14.14;65.25;100323.56;5046439;28;19914;-91
2022/05/28 06:05:21;;;;;;;;;;;;;;;14.25;65.21;100325.22;5500007;23;19943;-94
2022/05/28 06:07:46;;;;;;;;;;;;;;;14.11;66.19;100330.09;5039752;28;20395;-94
2022/05/28 06:10:12;;;;;;;;;;;;;;;14.08;66.05;100327.69;5023868;28;19960;-90
2022/05/28 06:12:37;;;;;;;;;;;;;;;13.96;65.98;100326.22;5027587;28;19913;-93
2022/05/28 06:15:03;;;;;;;;;;;;;;;14.01;66.44;100331.16;5022500;28;19942;-90
2022/05/28 06:17:28;;;;;;;;;;;;;;;13.86;66.46;100330.81;5033614;28;20382;-90
2022/05/28 06:19:53;;;;;;;;;;;;;;;13.85;67.24;100324.59;5023320;28;20286;-89
2022/05/28 06:22:18;;;;;;;;;;;;;;;13.84;67.87;100330.13;5022741;28;20418;-92
2022/05/28 06:24:44;;;;;;;;;;;;;;;13.84;67.73;100325.59;5026449;28;19935;-93
2022/05/28 06:27:09;;;;;;;;;;;;;;;14.03;67.68;100331.84;5029260;28;19935;-89
2022/05/28 06:29:34;;;;;;;;;;;;;;;14.01;67.63;100331.16;5028899;28;19965;-92
2022/05/28 06:31:59;;;;;;;;;;;;;;;14.15;66.96;100327.94;5025272;28;20374;-94
2022/05/28 06:34:25;;;;;;;;;;;;;;;14.17;67.28;100331.31;5038830;28;19966;-94
2022/05/28 06:36:50;;;;;;;;;;;;;;;14.13;66.95;100327.25;5039131;28;19913;-96
2022/05/28 06:39:15;;;;;;;;;;;;;;;14.14;67.44;100332.47;5036320;28;19913;-89
2022/05/28 06:41:41;;;;;;;;;;;;;;;14.01;67.28;100331.16;5000038;28;19913;-94
2022/05/28 06:44:07;;;;;;;;;;;;;;;13.90;67.91;100332.19;4992801;28;19940;-93
2022/05/28 06:46:32;;;;;;;;;;;;;;;13.70;67.83;100331.44;5023117;28;21698;-94
2022/05/28 06:48:57;;;;;;;;;;;;;;;13.79;68.64;100329.72;5017637;28;19913;-94
2022/05/28 06:51:22;;;;;;;;;;;;;;;13.96;68.29;100331.59;5002573;28;19919;-92
2022/05/28 06:53:48;;;;;;;;;;;;;;;14.00;68.56;100329.44;5016386;28;20015;-93
2022/05/28 06:56:14;;;;;;;;;;;;;;;13.95;67.78;100327.22;5032676;28;20429;-92
2022/05/28 06:58:39;;;;;;;;;;;;;;;14.03;67.98;100326.47;5023876;28;19917;-89
2022/05/28 07:01:06;;;;;;;;;;;;;;;13.97;67.05;100337.81;5032479;28;20366;-89
2022/05/28 07:03:32;;;;;;;;;;;;;;;14.11;67.69;100330.09;5033950;28;21409;-91
2022/05/28 07:05:57;;;;;;;;;;;;;;;14.20;66.31;100335.59;5018172;28;19917;-89
2022/05/28 07:08:23;;;;;;;;;;;;;;;14.13;64.52;100330.78;5030120;28;19913;-89
2022/05/28 07:10:49;;;;;;;;;;;;;;;14.04;63.39;100331.69;5032788;28;20808;-93
2022/05/28 07:13:14;;;;;;;;;;;;;;;13.96;62.00;100333.44;5029131;28;19921;-88
2022/05/28 07:15:39;;;;;;;;;;;;;;;14.03;62.07;100332.69;5018281;28;19943;-89
2022/05/28 07:18:05;;;;;;;;;;;;;;;14.08;62.19;100332.22;5030615;28;19912;-86
2022/05/28 07:20:30;;;;;;;;;;;;;;;14.22;62.13;100333.59;5022743;28;19963;-88
2022/05/28 07:22:55;;;;;;;;;;;;;;;14.25;62.46;100339.50;5032007;28;19913;-87
2022/05/28 07:25:21;;;;;;;;;;;;;;;14.25;61.62;100341.34;5010581;28;19913;-91
2022/05/28 07:27:46;;;;;;;;;;;;;;;14.30;62.12;100341.72;5022864;28;20012;-88
2022/05/28 07:30:11;;;;;;;;;;;;;;;14.38;62.06;100341.81;5030278;28;19921;-87
2022/05/28 07:32:36;;;;;;;;;;;;;;;14.48;62.45;100338.09;5026830;28;19917;-88
2022/05/28 07:35:02;;;;;;;;;;;;;;;14.34;61.17;100343.97;5025026;28;19917;-89
2022/05/28 07:37:29;;;;;;;;;;;;;;;14.31;61.71;100343.44;5029588;28;19912;-90
2022/05/28 07:39:57;;;;;;;;;;;;;;;14.23;61.37;100344.19;5028285;28;20371;-89
2022/05/28 07:42:29;;;;;;;;;;;;;;;14.20;61.32;100335.59;5025098;28;19916;-89
2022/05/28 07:44:54;;;;;;;;;;;;;;;14.14;61.93;100335.16;5019273;28;19928;-95
2022/05/28 07:47:19;;;;;;;;;;;;;;;14.18;61.66;100338.38;5029999;28;19920;-88
2022/05/28 07:49:44;;;;;;;;;;;;;;;14.21;61.26;100343.50;5023014;28;19913;-89
2022/05/28 07:52:11;;;;;;;;;;;;;;;14.21;60.38;100339.97;5021979;28;19915;-89
2022/05/28 07:54:36;;;;;;;;;;;;;;;14.39;60.17;100336.28;5023005;28;19913;-87
2022/05/28 07:57:02;;;;;;;;;;;;;;;14.49;59.57;100337.09;5022792;28;20007;-94
2022/05/28 07:59:29;;;;;;;;;;;;;;;14.50;59.79;100340.63;5023563;28;19917;-86
2022/05/28 08:01:54;;;;;;;;;;;;;;;14.58;60.10;100338.00;5025354;28;19917;-86
2022/05/28 08:04:19;;;;;;;;;;;;;;;14.63;59.84;100332.16;5028000;28;19916;-88
2022/05/28 08:06:45;;;;;;;;;;;;;;;14.55;60.17;100335.63;5023917;28;20024;-90
2022/05/28 08:09:11;;;;;;;;;;;;;;;14.42;60.65;100335.13;5023962;28;19912;-91
2022/05/28 08:11:36;;;;;;;;;;;;;;;14.44;60.31;100328.63;5024164;28;19914;-87
2022/05/28 08:14:02;;;;;;;;;;;;;;;14.45;60.77;100330.31;5032730;28;19916;-88
2022/05/28 08:16:27;;;;;;;;;;;;;;;14.57;60.59;100328.22;5030237;28;19916;-89
2022/05/28 08:18:52;;;;;;;;;;;;;;;14.73;60.38;100327.56;5028646;28;19913;-93
2022/05/28 08:24:01;;;;;;;;;;;;;;;14.73;58.96;100332.94;5004140;28;19991;-91
2022/05/28 08:26:26;;;;;;;;;;;;;;;14.71;58.74;100327.72;5010313;28;20307;-86
2022/05/28 08:28:52;;;;;;;;;;;;;;;14.67;58.73;100334.41;5023666;28;19913;-89
2022/05/28 08:31:18;;;;;;;;;;;;;;;14.72;59.09;100336.63;5026098;28;19921;-94
2022/05/28 08:33:43;;;;;;;;;;;;;;;14.72;59.11;100337.47;4997606;28;20032;-87
2022/05/28 08:36:09;;;;;;;;;;;;;;;14.77;59.39;100334.31;5021468;28;20377;-90
2022/05/28 08:38:34;;;;;;;;;;;;;;;14.89;58.64;100338.44;5026317;28;20385;-88
2022/05/28 08:41:02;;;;;;;;;;;;;;;14.86;57.65;100343.31;5021841;28;19913;-89
2022/05/28 08:43:32;;;;;;;;;;;;;;;14.75;57.49;100336.31;5030184;28;19936;-93
2022/05/28 08:45:57;;;;;;;;;;;;;;;14.73;58.20;100341.00;4981798;28;19920;-91
2022/05/28 08:48:26;;;;;;;;;;;;;;;14.82;57.88;100342.78;5004904;28;19917;-87
2022/05/28 08:50:55;;;;;;;;;;;;;;;14.64;56.90;100333.84;5021061;28;19963;-91
2022/05/28 08:53:26;;;;;;;;;;;;;;;14.80;58.55;100328.63;5021610;28;20010;-90
2022/05/28 08:55:53;;;;;;;;;;;;;;;15.00;57.87;100331.97;5017444;28;19913;-88
2022/05/28 08:58:19;;;;;;;;;;;;;;;14.99;56.37;100332.97;5010596;28;19996;-88
2022/05/28 09:00:46;;;;;;;;;;;;;;;14.97;56.62;100329.59;5020823;28;19918;-87
2022/05/28 09:03:24;;;;;;;;;;;;;;;14.92;56.08;100337.28;5019695;28;20267;-88
2022/05/28 09:06:08;;;;;;;;;;;;;;;14.79;56.56;100337.69;5006072;28;19921;-87
2022/05/28 09:08:38;;;;;;;;;;;;;;;14.79;56.80;100335.84;5009401;28;19923;-87
2022/05/28 09:11:05;;;;;;;;;;;;;;;14.89;57.38;100329.53;5007048;28;20019;-89
2022/05/28 09:13:44;;;;;;;;;;;;;;;15.03;57.89;100328.94;5026265;28;19912;-90
2022/05/28 09:16:26;;;;;;;;;;;;;;;15.22;58.14;100328.78;5010990;28;19959;-94
2022/05/28 09:18:52;;;;;;;;;;;;;;;15.18;56.68;100330.09;4996029;28;19951;-87
2022/05/28 09:21:17;;;;;;;;;;;;;;;15.21;56.79;100328.94;5020635;28;19924;-91
2022/05/28 09:23:44;;;;;;;;;;;;;;;15.27;56.38;100321.06;5017809;28;20911;-88
2022/05/28 09:26:10;;;;;;;;;;;;;;;15.26;56.66;100318.53;5007136;28;19976;-93
2022/05/28 09:28:41;;;;;;;;;;;;;;;15.23;56.24;100318.84;5018317;28;20011;-90
2022/05/28 09:31:25;;;;;;;;;;;;;;;15.23;55.50;100319.69;5022363;28;19919;-89
2022/05/28 09:33:54;;;;;;;;;;;;;;;15.13;56.44;100324.31;5020039;28;19917;-91
2022/05/28 09:36:22;;;;;;;;;;;;;;;15.04;55.13;100315.31;5026937;28;19959;-91
2022/05/28 09:38:54;;;;;;;;;;;;;;;15.04;56.07;100320.72;5022296;28;19971;-89
2022/05/28 09:41:22;;;;;;;;;;;;;;;15.05;56.20;100322.41;5024226;28;19913;-91
2022/05/28 09:43:49;;;;;;;;;;;;;;;15.23;56.04;100327.78;5045515;28;20006;-93
2022/05/28 09:46:20;;;;;;;;;;;;;;;15.43;56.70;100314.91;5026170;28;19984;-92
2022/05/28 09:48:47;;;;;;;;;;;;;;;15.50;56.04;100315.09;5024252;28;19974;-94
2022/05/28 09:51:25;;;;;;;;;;;;;;;15.65;56.64;100311.69;5019950;28;19917;-88
2022/05/28 09:56:58;;;;;;;;;;;;;;;15.43;54.59;100323.84;5027417;28;19958;-91
2022/05/28 09:59:34;;;;;;;;;;;;;;;15.37;54.64;100321.78;5038876;28;19917;-89
2022/05/28 10:02:07;;;;;;;;;;;;;;;15.36;55.61;100321.94;5012573;28;19928;-93
2022/05/28 10:04:33;;;;;;;;;;;;;;;15.43;55.41;100317.59;5024147;28;19912;-90
2022/05/28 10:07:00;;;;;;;;;;;;;;;15.52;55.09;100323.88;5026691;28;20011;-88
2022/05/28 10:09:30;;;;;;;;;;;;;;;15.53;54.54;100315.63;5032300;28;19956;-89
2022/05/28 10:11:57;;;;;;;;;;;;;;;15.57;54.01;100316.16;5013270;28;20397;-88
2022/05/28 10:14:24;;;;;;;;;;;;;;;15.62;53.57;100305.78;5022782;28;20008;-88
2022/05/28 10:16:52;;;;;;;;;;;;;;;15.57;53.04;100306.22;5024196;28;19913;-84
2022/05/28 10:19:28;;;;;;;;;;;;;;;15.50;53.31;100305.16;5025715;28;20003;-85
2022/05/28 10:21:54;;;;;;;;;;;;;;;15.34;52.70;100302.41;5021430;28;19917;-84
2022/05/28 10:24:19;;;;;;;;;;;;;;;15.39;54.08;100295.50;5019754;28;19963;-84
2022/05/28 10:26:52;;;;;;;;;;;;;;;15.38;53.99;100301.06;5009001;28;19913;-83
2022/05/28 10:29:18;;;;;;;;;;;;;;;15.28;52.66;100305.72;5023554;28;20363;-84
2022/05/28 10:31:44;;;;;;;;;;;;;;;15.27;52.52;100295.97;5025748;28;19917;-84
2022/05/28 10:34:19;;;;;;;;;;;;;;;15.33;52.15;100298.00;5026202;28;19916;-83
2022/05/28 10:36:44;;;;;;;;;;;;;;;15.43;52.60;100294.19;5024472;28;19913;-85
2022/05/28 10:39:16;;;;;;;;;;;;;;;15.63;52.46;100294.00;5023263;28;19917;-84
2022/05/28 10:41:42;;;;;;;;;;;;;;;15.58;50.63;100282.81;5004159;28;19955;-85
2022/05/28 10:44:07;;;;;;;;;;;;;;;15.64;51.41;100288.44;5006588;28;19981;-84
2022/05/28 10:46:51;;;;;;;;;;;;;;;15.60;49.87;100286.19;5020144;28;19921;-85
2022/05/28 10:49:22;;;;;;;;;;;;;;;15.58;49.59;100283.66;5022218;28;19917;-84
2022/05/28 10:52:00;;;;;;;;;;;;;;;15.55;49.22;100288.50;5036706;28;19925;-84
2022/05/28 10:54:31;;;;;;;;;;;;;;;15.46;48.29;100284.94;5037234;28;19917;-85
2022/05/28 10:57:12;;;;;;;;;;;;;;;15.43;48.80;100283.41;5020707;28;19917;-84
2022/05/28 10:59:46;;;;;;;;;;;;;;;15.42;48.66;100280.88;5016850;28;19913;-83
2022/05/28 11:02:20;;;;;;;;;;;;;;;15.50;49.99;100275.50;5036399;28;19917;-85
2022/05/28 11:04:48;;;;;;;;;;;;;;;15.68;50.37;100280.88;5040200;28;19917;-83
2022/05/28 11:07:32;;;;;;;;;;;;;;;15.63;49.76;100281.34;5022736;28;19928;-85
2022/05/28 11:10:04;;;;;;;;;;;;;;;15.68;49.54;100272.78;5019798;28;19988;-84
2022/05/28 11:12:29;;;;;;;;;;;;;;;15.80;49.05;100271.47;5025404;28;20802;-85
2022/05/28 11:15:13;;;;;;;;;;;;;;;15.94;49.02;100268.13;5044708;28;19916;-84
2022/05/28 11:17:41;;;;;;;;;;;;;;;15.96;46.75;100276.06;5021510;28;19918;-84
2022/05/28 11:20:10;;;;;;;;;;;;;;;15.87;46.56;100268.97;5021383;28;20398;-85
2022/05/28 11:22:54;;;;;;;;;;;;;;;15.89;46.29;100265.09;5039756;28;19959;-85
2022/05/28 11:25:23;;;;;;;;;;;;;;;16.01;48.56;100261.06;5038729;28;19917;-85
2022/05/28 11:28:00;;;;;;;;;;;;;;;16.09;47.70;100245.94;5021710;28;20015;-85
2022/05/28 11:30:39;;;;;;;;;;;;;;;16.20;47.33;100245.59;5003962;28;19917;-84
2022/05/28 11:33:10;;;;;;;;;;;;;;;16.27;46.37;100247.47;5008734;28;19919;-84
2022/05/28 11:35:38;;;;;;;;;;;;;;;16.33;45.48;100237.84;5024393;28;19920;-85
2022/05/28 11:38:13;;;;;;;;;;;;;;;16.27;45.53;100235.81;5025976;28;19996;-85
2022/05/28 11:40:45;;;;;;;;;;;;;;;16.18;45.88;100242.22;5024662;28;19916;-84
2022/05/28 11:43:15;;;;;;;;;;;;;;;16.27;47.25;100233.97;5020119;28;19919;-84
2022/05/28 11:45:47;;;;;;;;;;;;;;;16.36;46.31;100240.22;5007811;28;19992;-85
2022/05/28 11:48:24;;;;;;;;;;;;;;;16.32;46.68;100237.00;5029174;28;19913;-84
2022/05/28 11:53:44;;;;;;;;;;;;;;;16.19;47.97;100233.97;5027721;28;19924;-83
2022/05/28 11:56:13;;;;;;;;;;;;;;;16.10;46.44;100244.91;5006934;28;20036;-84
2022/05/28 11:58:49;;;;;;;;;;;;;;;16.06;46.59;100234.44;5023008;28;19917;-85
2022/05/28 12:01:20;;;;;;;;;;;;;;;16.10;47.99;100231.44;5023802;28;19916;-85
2022/05/28 12:03:45;;;;;;;;;;;;;;;16.04;47.78;100231.06;5007198;28;19924;-85
2022/05/28 12:06:18;;;;;;;;;;;;;;;16.04;47.21;100235.59;5025772;28;19917;-84
2022/05/28 12:08:48;;;;;;;;;;;;;;;16.10;47.68;100216.09;5007715;28;19917;-87
2022/05/28 12:11:19;;;;;;;;;;;;;;;16.16;49.16;100215.41;5019035;28;19966;-85
2022/05/28 12:13:46;;;;;;;;;;;;;;;16.28;49.38;100211.38;5020948;28;19921;-85
2022/05/28 12:16:35;;;;;;;;;;;;;;;16.39;49.19;100196.69;5021419;28;19924;-85
2022/05/28 12:19:07;;;;;;;;;;;;;;;16.52;48.63;100197.00;5018305;28;19920;-84
2022/05/28 12:21:33;;;;;;;;;;;;;;;16.55;49.31;100193.13;5022692;28;20397;-84
2022/05/28 12:24:04;;;;;;;;;;;;;;;16.55;48.62;100207.47;5022652;28;19978;-85
2022/05/28 12:29:29;;;;;;;;;;;;;;;16.53;45.26;100201.38;5025587;28;19974;-83
2022/05/28 12:31:55;;;;;;;;;;;;;;;16.47;45.67;100202.06;5023189;28;19925;-83
2022/05/28 12:34:21;;;;;;;;;;;;;;;16.42;46.37;100193.63;5023540;28;19917;-83
2022/05/28 12:36:47;;;;;;;;;;;;;;;16.39;45.90;100199.38;5018685;28;20004;-85
2022/05/28 12:39:12;;;;;;;;;;;;;;;16.36;46.40;100186.22;5022939;28;19916;-83
2022/05/28 12:41:37;;;;;;;;;;;;;;;16.43;46.77;100181.00;5036767;28;19917;-84
2022/05/28 12:44:05;;;;;;;;;;;;;;;16.48;47.29;100179.47;5020070;28;20972;-85
2022/05/28 12:46:44;;;;;;;;;;;;;;;16.42;47.52;100187.41;5025488;28;20000;-83
2022/05/28 12:49:09;;;;;;;;;;;;;;;16.26;45.58;100188.25;5019209;28;20374;-83
2022/05/28 12:51:36;;;;;;;;;;;;;;;16.16;46.90;100196.53;5023668;28;19932;-84
2022/05/28 12:54:03;;;;;;;;;;;;;;;16.18;46.76;100197.19;5020770;28;20474;-82
2022/05/28 12:56:28;;;;;;;;;;;;;;;16.16;48.25;100195.69;5024795;28;19917;-84
2022/05/28 12:58:53;;;;;;;;;;;;;;;16.25;47.75;100182.00;5021308;28;19924;-83
2022/05/28 13:01:20;;;;;;;;;;;;;;;16.37;48.14;100187.91;5003164;28;19917;-84